Time;durP1;ratioP1;P1;durP2;ratioP2;P2;SDS_P1;SDS_P2;PMS_P1;PMS_P2;Temp;Humidity;BMP_temperature;BMP_pressure;BME280_temperature;BME280_humidity;BME280_pressure;Samples;Min_cycle;Max_cycle;Signal;HPM_P1;HPM_P2
2023/04/29 00:01:42;;;;;;;;;;;;;;;23.21;56.58;98878.06;7308164;19;129051;-40
2023/04/29 00:04:07;;;;;;;;;;;;;;;23.21;56.00;98891.16;7310498;19;130210;-40
2023/04/29 00:06:33;;;;;;;;;;;;;;;23.20;56.42;98884.28;7309537;19;130416;-40
2023/04/29 00:08:58;;;;;;;;;;;;;;;23.17;56.79;98880.19;7311200;19;129386;-41
2023/04/29 00:11:23;;;;;;;;;;;;;;;23.21;56.34;98870.19;7309374;19;129163;-40
2023/04/29 00:13:49;;;;;;;;;;;;;;;23.22;56.35;98871.84;7310667;19;130956;-40
2023/04/29 00:16:14;;;;;;;;;;;;;;;23.25;56.09;98874.13;7309444;19;130249;-40
2023/04/29 00:18:39;;;;;;;;;;;;;;;23.27;56.15;98874.00;7308872;19;129769;-40
2023/04/29 00:21:04;;;;;;;;;;;;;;;23.27;56.37;98874.00;7309463;19;129075;-40
2023/04/29 00:23:30;;;;;;;;;;;;;;;23.33;56.53;98879.38;7309750;19;131344;-40
2023/04/29 00:25:55;;;;;;;;;;;;;;;23.33;56.14;98866.25;7308856;19;129848;-40
2023/04/29 00:28:21;;;;;;;;;;;;;;;23.32;55.96;98854.13;7311704;19;129373;-40
2023/04/29 00:30:46;;;;;;;;;;;;;;;23.24;56.25;98848.88;7309923;19;129439;-40
2023/04/29 00:33:11;;;;;;;;;;;;;;;23.34;56.22;98859.22;7309992;19;129892;-41
2023/04/29 00:35:36;;;;;;;;;;;;;;;23.35;56.44;98866.91;7309416;19;131564;-40
2023/04/29 00:38:02;;;;;;;;;;;;;;;23.34;56.26;98860.03;7308350;19;130029;-40
2023/04/29 00:40:27;;;;;;;;;;;;;;;23.34;56.63;98854.78;7308981;19;129322;-40
2023/04/29 00:42:53;;;;;;;;;;;;;;;23.38;56.46;98855.25;7310063;19;130555;-40
2023/04/29 00:45:18;;;;;;;;;;;;;;;23.36;56.09;98847.56;7309551;19;130858;-40
2023/04/29 00:47:43;;;;;;;;;;;;;;;23.37;56.05;98846.56;7310416;19;128953;-40
2023/04/29 00:50:09;;;;;;;;;;;;;;;23.39;55.70;98847.22;7309534;19;130137;-40
2023/04/29 00:52:35;;;;;;;;;;;;;;;23.37;56.07;98849.19;7309631;19;130114;-40
2023/04/29 00:55:01;;;;;;;;;;;;;;;23.38;55.78;98845.59;7310370;19;130460;-40
2023/04/29 00:57:28;;;;;;;;;;;;;;;23.24;56.11;98822.63;7308327;19;129736;-40
2023/04/29 00:59:55;;;;;;;;;;;;;;;23.36;55.65;98847.56;7309450;19;129014;-40
2023/04/29 01:02:20;;;;;;;;;;;;;;;23.30;56.40;98850.88;7308734;19;129522;-40
2023/04/29 01:04:46;;;;;;;;;;;;;;;23.34;56.39;98853.97;7309408;19;129738;-40
2023/04/29 01:07:35;;;;;;;;;;;;;;;23.32;56.34;98848.06;7308620;19;128912;-40
2023/04/29 01:10:13;;;;;;;;;;;;;;;23.33;55.79;98850.53;7306951;19;129509;-40
2023/04/29 01:12:48;;;;;;;;;;;;;;;23.30;55.80;98853.50;7307901;19;129295;-40
2023/04/29 01:15:27;;;;;;;;;;;;;;;23.30;55.75;98848.25;7305280;19;129533;-40
2023/04/29 01:17:59;;;;;;;;;;;;;;;23.29;56.23;98857.09;7307863;19;129591;-40
2023/04/29 01:20:25;;;;;;;;;;;;;;;23.27;56.48;98847.75;7308564;19;129459;-40
2023/04/29 01:22:50;;;;;;;;;;;;;;;23.29;56.68;98849.22;7308814;19;129533;-40
2023/04/29 01:25:16;;;;;;;;;;;;;;;23.26;56.56;98846.91;7308444;19;129587;-40
2023/04/29 01:27:48;;;;;;;;;;;;;;;23.27;56.62;98843.31;7308256;19;129070;-40
2023/04/29 01:30:30;;;;;;;;;;;;;;;23.26;56.06;98846.91;7307710;19;129728;-40
2023/04/29 01:32:58;;;;;;;;;;;;;;;23.21;56.00;98849.22;7308884;19;130165;-40
2023/04/29 01:35:41;;;;;;;;;;;;;;;23.27;56.73;98853.00;7307594;19;130912;-40
2023/04/29 01:38:22;;;;;;;;;;;;;;;23.27;56.17;98851.19;7307957;19;129666;-40
2023/04/29 01:40:55;;;;;;;;;;;;;;;23.23;55.98;98855.09;7308038;19;129755;-40
2023/04/29 01:43:21;;;;;;;;;;;;;;;23.28;55.97;98862.50;7307699;19;129556;-40
2023/04/29 01:45:47;;;;;;;;;;;;;;;23.25;55.79;98858.38;7306415;19;130401;-40
2023/04/29 01:48:12;;;;;;;;;;;;;;;23.26;56.07;98862.63;7308137;19;129010;-40
2023/04/29 01:50:37;;;;;;;;;;;;;;;23.24;55.91;98875.09;7308120;19;129235;-40
2023/04/29 01:53:03;;;;;;;;;;;;;;;23.23;56.50;98866.44;7307044;19;129751;-41
2023/04/29 01:55:28;;;;;;;;;;;;;;;23.24;55.81;98869.84;7305154;19;130071;-42
2023/04/29 01:57:53;;;;;;;;;;;;;;;23.24;56.54;98886.41;7306322;19;129303;-40
2023/04/29 02:00:18;;;;;;;;;;;;;;;23.25;56.18;98892.47;7307333;19;129936;-40
2023/04/29 02:02:44;;;;;;;;;;;;;;;23.23;56.14;98894.44;7306680;19;130101;-40
2023/04/29 02:05:09;;;;;;;;;;;;;;;23.22;56.12;98898.88;7306197;19;131004;-40
2023/04/29 02:07:35;;;;;;;;;;;;;;;23.22;56.11;98898.88;7305874;19;129277;-41
2023/04/29 02:10:00;;;;;;;;;;;;;;;23.24;56.50;98890.81;7306738;19;129020;-40
2023/04/29 02:12:25;;;;;;;;;;;;;;;23.24;55.75;98890.81;7306207;19;129689;-40
2023/04/29 02:14:51;;;;;;;;;;;;;;;23.24;56.34;98893.44;7306438;19;130059;-40
2023/04/29 02:17:17;;;;;;;;;;;;;;;23.22;56.05;98898.88;7305554;19;129338;-40
2023/04/29 02:19:42;;;;;;;;;;;;;;;23.22;56.34;98898.06;7307235;19;129556;-40
2023/04/29 02:22:08;;;;;;;;;;;;;;;23.19;56.50;98891.34;7309298;19;129494;-40
2023/04/29 02:24:34;;;;;;;;;;;;;;;23.20;55.73;98874.59;7313864;19;130311;-40
2023/04/29 02:26:59;;;;;;;;;;;;;;;23.21;56.14;98880.69;7313614;19;129483;-41
2023/04/29 02:29:26;;;;;;;;;;;;;;;23.18;56.25;98881.00;7313856;19;128884;-40
2023/04/29 02:31:51;;;;;;;;;;;;;;;23.16;55.92;98875.13;7311405;19;130629;-40
2023/04/29 02:34:16;;;;;;;;;;;;;;;23.20;55.73;98884.28;7313387;19;131114;-40
2023/04/29 02:36:42;;;;;;;;;;;;;;;23.20;56.47;98874.59;7313681;19;129857;-40
2023/04/29 02:39:07;;;;;;;;;;;;;;;23.20;56.39;98873.81;7311631;19;128964;-40
2023/04/29 02:41:33;;;;;;;;;;;;;;;23.18;55.83;98888.88;7311184;19;129438;-40
2023/04/29 02:43:59;;;;;;;;;;;;;;;23.16;56.49;98894.28;7313952;19;131078;-40
2023/04/29 02:46:24;;;;;;;;;;;;;;;23.06;56.06;98861.38;7313268;19;129273;-40
2023/04/29 02:48:49;;;;;;;;;;;;;;;23.18;55.86;98881.00;7314085;19;129168;-40
2023/04/29 02:51:15;;;;;;;;;;;;;;;23.12;55.76;98865.97;7311364;19;129452;-44
2023/04/29 02:53:40;;;;;;;;;;;;;;;23.03;55.63;98845.97;7313369;19;129069;-40
2023/04/29 02:56:05;;;;;;;;;;;;;;;23.15;56.21;98870.88;7312102;19;129417;-40
2023/04/29 02:58:30;;;;;;;;;;;;;;;23.15;56.08;98865.63;7312491;19;129214;-40
2023/04/29 03:00:56;;;;;;;;;;;;;;;23.15;55.96;98863.78;7312647;19;129927;-41
2023/04/29 03:03:22;;;;;;;;;;;;;;;23.14;56.28;98864.78;7313525;19;130247;-40
2023/04/29 03:05:47;;;;;;;;;;;;;;;23.14;56.20;98875.28;7312926;19;129714;-40
2023/04/29 03:08:12;;;;;;;;;;;;;;;23.15;55.98;98860.38;7312261;19;129169;-40
2023/04/29 03:10:38;;;;;;;;;;;;;;;23.12;56.37;98863.34;7312251;19;129214;-40
2023/04/29 03:13:03;;;;;;;;;;;;;;;23.04;56.21;98858.09;7312867;19;129393;-40
2023/04/29 03:15:29;;;;;;;;;;;;;;;23.13;56.43;98870.22;7311591;19;129075;-40
2023/04/29 03:17:54;;;;;;;;;;;;;;;23.10;56.48;98866.13;7311421;19;129065;-40
2023/04/29 03:20:20;;;;;;;;;;;;;;;23.11;56.21;98869.56;7311679;19;129626;-40
2023/04/29 03:22:45;;;;;;;;;;;;;;;22.98;56.46;98836.00;7311724;19;130301;-40
2023/04/29 03:25:10;;;;;;;;;;;;;;;23.10;55.94;98853.03;7311636;19;129366;-40
2023/04/29 03:27:36;;;;;;;;;;;;;;;23.11;56.44;98848.56;7311869;19;129087;-40
2023/04/29 03:30:01;;;;;;;;;;;;;;;23.11;55.97;98848.56;7312529;19;129169;-40
2023/04/29 03:32:26;;;;;;;;;;;;;;;23.11;56.46;98851.19;7309591;19;131073;-40
2023/04/29 03:34:52;;;;;;;;;;;;;;;23.05;56.25;98849.25;7312562;19;129378;-40
2023/04/29 03:37:17;;;;;;;;;;;;;;;22.74;56.81;98836.00;7310729;19;130125;-40
2023/04/29 03:39:42;;;;;;;;;;;;;;;22.48;56.90;98852.84;7312282;19;130452;-40
2023/04/29 03:42:07;;;;;;;;;;;;;;;22.12;56.05;98849.72;7308358;19;129293;-40
2023/04/29 03:44:33;;;;;;;;;;;;;;;22.02;56.34;98849.03;7311939;19;129245;-40
2023/04/29 03:46:58;;;;;;;;;;;;;;;21.98;55.81;98864.25;7310193;19;129159;-40
2023/04/29 03:49:24;;;;;;;;;;;;;;;22.06;56.40;98854.78;7312060;19;130778;-40
2023/04/29 03:51:49;;;;;;;;;;;;;;;22.07;56.26;98851.16;7309126;19;130275;-40
2023/04/29 03:54:15;;;;;;;;;;;;;;;22.11;55.94;98842.84;7311280;19;129480;-40
2023/04/29 03:56:40;;;;;;;;;;;;;;;22.22;55.41;98854.78;7310484;19;129156;-40
2023/04/29 03:59:05;;;;;;;;;;;;;;;22.23;55.42;98838.13;7309608;19;130209;-40
2023/04/29 04:01:31;;;;;;;;;;;;;;;22.37;55.52;98855.81;7308515;19;130863;-40
2023/04/29 04:03:56;;;;;;;;;;;;;;;22.44;54.93;98851.56;7309420;19;129251;-40
2023/04/29 04:06:21;;;;;;;;;;;;;;;22.49;55.10;98854.50;7308616;19;129543;-40
2023/04/29 04:08:47;;;;;;;;;;;;;;;22.43;54.59;98842.06;7310381;19;130169;-40
2023/04/29 04:11:14;;;;;;;;;;;;;;;22.49;54.83;98852.72;7307923;19;129530;-40
2023/04/29 04:13:41;;;;;;;;;;;;;;;22.60;54.88;98860.28;7311491;19;129593;-40
2023/04/29 04:16:06;;;;;;;;;;;;;;;22.60;54.83;98856.81;7308389;19;129612;-40
2023/04/29 04:18:31;;;;;;;;;;;;;;;22.57;54.36;98860.59;7309346;19;129456;-40
2023/04/29 04:20:56;;;;;;;;;;;;;;;22.57;54.20;98854.53;7309121;19;130123;-40
2023/04/29 04:23:22;;;;;;;;;;;;;;;22.62;54.12;98860.09;7310218;19;129182;-40
2023/04/29 04:25:47;;;;;;;;;;;;;;;22.60;54.95;98859.44;7309566;19;129127;-40
2023/04/29 04:28:13;;;;;;;;;;;;;;;22.70;54.42;98867.97;7310648;19;130190;-40
2023/04/29 04:30:38;;;;;;;;;;;;;;;22.72;54.58;98864.22;7309496;19;130460;-40
2023/04/29 04:33:03;;;;;;;;;;;;;;;22.85;54.04;98863.69;7309487;19;129090;-40
2023/04/29 04:35:28;;;;;;;;;;;;;;;22.85;53.87;98869.75;7309524;19;129438;-40
2023/04/29 04:37:54;;;;;;;;;;;;;;;22.82;54.07;98859.63;7309076;19;129016;-40
2023/04/29 04:40:19;;;;;;;;;;;;;;;22.86;54.02;98870.56;7309780;19;129200;-40
2023/04/29 04:42:45;;;;;;;;;;;;;;;22.82;54.17;98869.28;7308172;19;129047;-40
2023/04/29 04:45:10;;;;;;;;;;;;;;;22.59;54.25;98845.50;7308583;19;129251;-40
2023/04/29 04:47:36;;;;;;;;;;;;;;;22.70;54.99;98867.97;7307783;19;130143;-39
2023/04/29 04:50:03;;;;;;;;;;;;;;;22.62;54.93;98866.16;7307202;19;130763;-40
2023/04/29 04:52:28;;;;;;;;;;;;;;;22.55;54.40;98866.97;7303379;19;129876;-41
2023/04/29 04:54:53;;;;;;;;;;;;;;;22.46;55.22;98870.56;7308015;19;129599;-40
2023/04/29 04:57:18;;;;;;;;;;;;;;;22.35;55.24;98852.50;7307095;19;130705;-40
2023/04/29 04:59:43;;;;;;;;;;;;;;;22.36;55.31;98868.06;7309457;19;129459;-40
2023/04/29 05:02:09;;;;;;;;;;;;;;;22.36;55.21;98872.50;7306783;19;129987;-40
2023/04/29 05:04:34;;;;;;;;;;;;;;;22.34;55.42;98871.84;7310113;19;129403;-40
2023/04/29 05:06:59;;;;;;;;;;;;;;;22.27;55.78;98876.06;7307141;19;129192;-40
2023/04/29 05:09:25;;;;;;;;;;;;;;;22.22;55.75;98878.34;7308476;19;130473;-40
2023/04/29 05:11:51;;;;;;;;;;;;;;;22.14;55.50;98875.72;7307237;19;129870;-40
2023/04/29 05:14:17;;;;;;;;;;;;;;;22.13;56.25;98880.13;7308939;19;128712;-40
2023/04/29 05:16:44;;;;;;;;;;;;;;;22.01;56.41;98859.66;7306356;19;130431;-40
2023/04/29 05:19:09;;;;;;;;;;;;;;;22.08;56.41;98886.84;7298479;19;130528;-40
2023/04/29 05:21:34;;;;;;;;;;;;;;;22.05;56.34;98881.94;7304611;19;129507;-40
2023/04/29 05:23:59;;;;;;;;;;;;;;;22.06;56.15;98886.19;7308062;19;128748;-40
2023/04/29 05:26:25;;;;;;;;;;;;;;;22.02;55.99;98884.84;7307389;19;130722;-40
2023/04/29 05:28:50;;;;;;;;;;;;;;;22.00;57.54;98886.84;7307711;19;130427;-40
2023/04/29 05:31:15;;;;;;;;;;;;;;;22.00;56.66;98892.06;7306388;19;129896;-40
2023/04/29 05:33:40;;;;;;;;;;;;;;;22.01;57.12;98891.06;7306276;19;129864;-40
2023/04/29 05:36:06;;;;;;;;;;;;;;;21.94;56.59;98894.34;7305867;19;130272;-40
2023/04/29 05:38:31;;;;;;;;;;;;;;;21.93;56.18;98884.84;7306174;19;129636;-40
2023/04/29 05:40:57;;;;;;;;;;;;;;;21.95;56.79;98895.13;7306680;19;129252;-40
2023/04/29 05:43:22;;;;;;;;;;;;;;;22.01;56.73;98891.91;7306643;19;129284;-40
2023/04/29 05:45:47;;;;;;;;;;;;;;;22.12;55.92;98896.00;7306233;19;130400;-40
2023/04/29 05:48:13;;;;;;;;;;;;;;;22.23;56.07;98900.97;7306977;19;130917;-40
2023/04/29 05:50:38;;;;;;;;;;;;;;;22.27;55.94;98905.72;7305666;19;129275;-40
2023/04/29 05:53:03;;;;;;;;;;;;;;;22.30;55.43;98904.56;7306693;19;129324;-40
2023/04/29 05:55:29;;;;;;;;;;;;;;;22.31;55.86;98911.44;7310076;19;130082;-40
2023/04/29 05:57:54;;;;;;;;;;;;;;;22.29;56.11;98909.00;7313667;19;129483;-40
2023/04/29 06:00:20;;;;;;;;;;;;;;;22.26;55.75;98905.88;7313563;19;129445;-40
2023/04/29 06:02:45;;;;;;;;;;;;;;;22.23;55.94;98908.81;7314137;19;129140;-40
2023/04/29 06:05:10;;;;;;;;;;;;;;;22.19;55.53;98905.69;7313461;19;130094;-40
2023/04/29 06:07:35;;;;;;;;;;;;;;;22.18;56.02;98905.84;7316233;19;130473;-40
2023/04/29 06:10:01;;;;;;;;;;;;;;;22.05;55.86;98889.78;7317586;19;129382;-40
2023/04/29 06:12:26;;;;;;;;;;;;;;;22.12;56.11;98919.56;7316252;19;129471;-40
2023/04/29 06:14:51;;;;;;;;;;;;;;;22.09;56.98;98917.28;7316569;19;129313;-40
2023/04/29 06:17:17;;;;;;;;;;;;;;;22.06;56.92;98914.97;7315893;19;130746;-40
2023/04/29 06:19:42;;;;;;;;;;;;;;;22.04;56.79;98920.38;7314670;19;128872;-40
2023/04/29 06:22:07;;;;;;;;;;;;;;;21.99;56.73;98922.66;7313542;19;129452;-40
2023/04/29 06:24:32;;;;;;;;;;;;;;;22.00;56.59;98929.50;7316330;19;129337;-40
2023/04/29 06:26:58;;;;;;;;;;;;;;;21.88;56.86;98910.66;7316581;19;130813;-40
2023/04/29 06:29:23;;;;;;;;;;;;;;;21.98;56.85;98935.91;7317337;19;128979;-40
2023/04/29 06:31:48;;;;;;;;;;;;;;;21.98;56.64;98934.09;7313382;19;129232;-40
2023/04/29 06:34:13;;;;;;;;;;;;;;;21.95;56.79;98934.41;7315959;19;129072;-40
2023/04/29 06:36:39;;;;;;;;;;;;;;;21.98;57.43;98941.13;7315118;19;129310;-40
2023/04/29 06:39:04;;;;;;;;;;;;;;;21.94;57.48;98945.84;7314678;19;129341;-40
2023/04/29 06:41:30;;;;;;;;;;;;;;;21.96;57.50;98939.47;7314038;19;130616;-40
2023/04/29 06:43:56;;;;;;;;;;;;;;;21.95;57.53;98939.63;7316980;19;130174;-40
2023/04/29 06:46:21;;;;;;;;;;;;;;;22.02;58.31;98942.44;7314881;19;131756;-40
2023/04/29 06:48:47;;;;;;;;;;;;;;;21.89;57.03;98938.47;7316333;19;129417;-40
2023/04/29 06:51:12;;;;;;;;;;;;;;;21.86;56.62;98944.03;7313720;19;129785;-40
2023/04/29 06:53:37;;;;;;;;;;;;;;;21.76;57.05;98921.53;7316428;19;130092;-40
2023/04/29 06:56:02;;;;;;;;;;;;;;;21.90;56.71;98934.88;7314303;19;129185;-40
2023/04/29 06:58:28;;;;;;;;;;;;;;;21.95;56.92;98927.38;7314681;19;129580;-40
2023/04/29 07:00:53;;;;;;;;;;;;;;;22.16;56.15;98947.09;7315762;19;129218;-40
2023/04/29 07:03:18;;;;;;;;;;;;;;;22.20;55.76;98940.53;7316107;19;129135;-40
2023/04/29 07:05:46;;;;;;;;;;;;;;;22.23;55.84;98953.34;7312930;19;130313;-40
2023/04/29 07:08:12;;;;;;;;;;;;;;;22.15;56.24;98932.38;7314233;19;129288;-40
2023/04/29 07:10:37;;;;;;;;;;;;;;;22.26;55.76;98951.22;7314327;19;128899;-40
2023/04/29 07:13:03;;;;;;;;;;;;;;;22.22;55.57;98954.28;7314396;19;131202;-40
2023/04/29 07:15:29;;;;;;;;;;;;;;;22.21;56.31;98955.28;7313049;19;129563;-40
2023/04/29 07:17:54;;;;;;;;;;;;;;;22.03;55.92;98933.63;7314295;19;129460;-40
2023/04/29 07:20:20;;;;;;;;;;;;;;;22.10;55.72;98950.34;7314386;19;128932;-40
2023/04/29 07:22:45;;;;;;;;;;;;;;;22.02;56.54;98958.13;7313729;19;129988;-40
2023/04/29 07:25:10;;;;;;;;;;;;;;;22.05;56.70;98963.09;7313353;19;129209;-40
2023/04/29 07:27:36;;;;;;;;;;;;;;;22.05;56.24;98963.09;7313702;19;129086;-40
2023/04/29 07:30:02;;;;;;;;;;;;;;;22.00;56.79;98965.34;7314766;19;129197;-40
2023/04/29 07:32:27;;;;;;;;;;;;;;;21.88;57.37;98941.25;7312893;19;131075;-40
2023/04/29 07:34:52;;;;;;;;;;;;;;;21.96;57.23;98960.41;7313805;19;129619;-40
2023/04/29 07:37:18;;;;;;;;;;;;;;;21.85;57.78;98950.22;7313459;19;129015;-40
2023/04/29 07:39:43;;;;;;;;;;;;;;;21.98;56.88;98972.53;7312102;19;129586;-40
2023/04/29 07:42:08;;;;;;;;;;;;;;;21.93;56.95;98976.44;7310361;19;129546;-40
2023/04/29 07:44:33;;;;;;;;;;;;;;;21.91;57.16;98978.38;7313586;19;129459;-40
2023/04/29 07:46:59;;;;;;;;;;;;;;;21.92;58.06;98980.03;7312569;19;129410;-40
2023/04/29 07:49:25;;;;;;;;;;;;;;;21.95;56.92;98984.97;7314599;19;129441;-40
2023/04/29 07:51:50;;;;;;;;;;;;;;;21.93;57.28;98986.09;7311674;19;130609;-40
2023/04/29 07:54:15;;;;;;;;;;;;;;;21.95;58.49;98984.97;7313266;19;130274;-40
2023/04/29 07:56:40;;;;;;;;;;;;;;;21.93;57.70;98997.38;7312543;19;130100;-40
2023/04/29 07:59:06;;;;;;;;;;;;;;;21.86;57.22;99001.59;7313198;19;129052;-40
2023/04/29 08:01:31;;;;;;;;;;;;;;;21.84;57.40;99008.78;7312251;19;130216;-40
2023/04/29 08:03:56;;;;;;;;;;;;;;;21.88;56.56;99010.09;7313868;19;129501;-40
2023/04/29 08:06:22;;;;;;;;;;;;;;;21.93;56.56;99012.28;7313063;19;129804;-40
2023/04/29 08:08:48;;;;;;;;;;;;;;;21.95;56.37;98998.03;7314298;19;129264;-39
2023/04/29 08:11:19;;;;;;;;;;;;;;;22.08;56.49;99009.88;7311051;19;129177;-40
2023/04/29 08:13:45;;;;;;;;;;;;;;;22.13;56.07;99007.63;7311585;19;129711;-40
2023/04/29 08:16:11;;;;;;;;;;;;;;;22.17;56.23;99009.75;7310851;19;129029;-40
2023/04/29 08:18:36;;;;;;;;;;;;;;;22.15;55.86;99005.66;7309898;19;129286;-40
2023/04/29 08:21:02;;;;;;;;;;;;;;;22.14;56.50;99014.47;7310434;19;129451;-40
2023/04/29 08:23:27;;;;;;;;;;;;;;;22.13;55.87;99012.84;7312329;19;130474;-40
2023/04/29 08:25:54;;;;;;;;;;;;;;;22.12;56.25;99005.97;7310442;19;129773;-40
2023/04/29 08:28:20;;;;;;;;;;;;;;;22.12;57.15;99019.06;7312801;19;130805;-40
2023/04/29 08:30:45;;;;;;;;;;;;;;;22.10;56.57;99019.22;7311273;19;129055;-40
2023/04/29 08:33:11;;;;;;;;;;;;;;;22.07;56.34;99022.16;7312500;19;129668;-40
2023/04/29 08:35:37;;;;;;;;;;;;;;;22.03;57.09;99023.44;7309504;19;129310;-40
2023/04/29 08:38:04;;;;;;;;;;;;;;;22.03;57.05;99031.31;7312428;19;128762;-40
2023/04/29 08:40:30;;;;;;;;;;;;;;;21.97;57.63;99031.91;7312172;19;130358;-40
2023/04/29 08:42:56;;;;;;;;;;;;;;;22.00;56.72;99028.16;7311354;19;130568;-40
2023/04/29 08:45:21;;;;;;;;;;;;;;;21.90;56.97;99018.63;7312127;19;129024;-40
2023/04/29 08:47:48;;;;;;;;;;;;;;;21.95;57.52;99034.69;7312067;19;129354;-40
2023/04/29 08:50:13;;;;;;;;;;;;;;;21.94;56.95;99035.66;7309253;19;130099;-40
2023/04/29 08:52:39;;;;;;;;;;;;;;;21.89;58.08;99032.69;7309439;19;130671;-40
2023/04/29 08:55:04;;;;;;;;;;;;;;;21.96;57.90;99045.97;7312902;19;128923;-39
2023/04/29 08:57:38;;;;;;;;;;;;;;;21.78;57.04;99027.69;7311372;19;130142;-40
2023/04/29 09:00:03;;;;;;;;;;;;;;;21.90;57.00;99049.19;7309883;19;130013;-40
2023/04/29 09:02:30;;;;;;;;;;;;;;;21.94;58.54;99043.53;7311699;19;131076;-40
2023/04/29 09:04:58;;;;;;;;;;;;;;;21.93;56.96;99047.09;7313073;19;129471;-40
2023/04/29 09:07:24;;;;;;;;;;;;;;;21.78;57.34;99032.94;7312387;19;129402;-40
2023/04/29 09:09:50;;;;;;;;;;;;;;;21.86;57.46;99058.34;7312964;19;130085;-40
2023/04/29 09:12:15;;;;;;;;;;;;;;;21.83;56.95;99059.47;7305688;19;130589;-40
2023/04/29 09:14:41;;;;;;;;;;;;;;;21.89;57.17;99058.88;7312911;19;128987;-40
2023/04/29 09:17:06;;;;;;;;;;;;;;;21.95;56.81;99060.03;7310992;19;129254;-40
2023/04/29 09:19:32;;;;;;;;;;;;;;;21.93;56.73;99048.91;7310309;19;129581;-40
2023/04/29 09:21:58;;;;;;;;;;;;;;;22.15;56.17;99074.53;7309067;19;130509;-40
2023/04/29 09:24:24;;;;;;;;;;;;;;;22.14;56.50;99072.09;7312734;19;128968;-40
2023/04/29 09:26:49;;;;;;;;;;;;;;;22.19;55.68;99078.50;7311755;19;129435;-41
2023/04/29 09:29:17;;;;;;;;;;;;;;;22.13;56.30;99081.72;7314502;19;131108;-40
2023/04/29 09:31:42;;;;;;;;;;;;;;;22.09;56.26;99066.50;7323847;19;130391;-40
2023/04/29 09:34:08;;;;;;;;;;;;;;;22.10;56.52;99083.84;7327330;19;129629;-40
2023/04/29 09:36:37;;;;;;;;;;;;;;;22.06;56.39;99080.72;7326220;19;129694;-40
2023/04/29 09:39:04;;;;;;;;;;;;;;;22.07;56.51;99086.75;7324068;19;129329;-40
2023/04/29 09:41:30;;;;;;;;;;;;;;;22.07;57.01;99081.53;7322479;19;130916;-40
2023/04/29 09:44:03;;;;;;;;;;;;;;;22.06;57.18;99085.97;7326643;19;129171;-40
2023/04/29 09:46:28;;;;;;;;;;;;;;;22.04;57.42;99081.84;7324602;19;129498;-40
2023/04/29 09:48:54;;;;;;;;;;;;;;;22.04;57.37;99089.69;7325922;19;130085;-40
2023/04/29 09:51:19;;;;;;;;;;;;;;;22.01;56.98;99092.63;7312325;19;130282;-40
2023/04/29 09:53:45;;;;;;;;;;;;;;;21.98;57.38;99097.19;7324485;19;129066;-40
2023/04/29 09:56:10;;;;;;;;;;;;;;;21.94;57.03;99095.88;7322702;19;129445;-40
2023/04/29 09:58:36;;;;;;;;;;;;;;;21.93;57.03;99112.53;7324845;19;129585;-40
2023/04/29 10:01:02;;;;;;;;;;;;;;;21.98;57.58;99108.66;7323364;19;130348;-40
2023/04/29 10:03:34;;;;;;;;;;;;;;;21.97;56.99;99107.81;7325466;19;129478;-39
2023/04/29 10:06:00;;;;;;;;;;;;;;;21.95;57.85;99109.75;7323689;19;129405;-40
2023/04/29 10:08:26;;;;;;;;;;;;;;;21.93;56.79;99104.69;7325050;19;129399;-40
2023/04/29 10:10:56;;;;;;;;;;;;;;;21.90;57.43;99102.38;7322403;19;131228;-40
2023/04/29 10:13:22;;;;;;;;;;;;;;;21.93;58.14;99112.53;7323531;19;128957;-41
2023/04/29 10:15:51;;;;;;;;;;;;;;;21.88;57.50;99114.78;7323519;19;129450;-40
2023/04/29 10:18:20;;;;;;;;;;;;;;;21.82;57.56;99115.41;7324039;19;130024;-40
2023/04/29 10:20:46;;;;;;;;;;;;;;;21.82;57.62;99120.63;7323460;19;130349;-40
2023/04/29 10:23:12;;;;;;;;;;;;;;;21.85;57.10;99122.94;7322029;19;129288;-40
2023/04/29 10:25:39;;;;;;;;;;;;;;;21.84;57.05;99108.22;7322215;19;129125;-40
2023/04/29 10:28:05;;;;;;;;;;;;;;;22.02;56.29;99131.72;7316357;19;129295;-40
2023/04/29 10:30:31;;;;;;;;;;;;;;;22.07;56.50;99128.66;7322969;19;130510;-40
2023/04/29 10:32:58;;;;;;;;;;;;;;;22.13;56.55;99128.03;7323824;19;129504;-40
2023/04/29 10:35:24;;;;;;;;;;;;;;;22.09;56.73;99126.69;7322784;19;129186;-40
2023/04/29 10:37:49;;;;;;;;;;;;;;;22.06;56.28;99122.59;7321948;19;130207;-40
2023/04/29 10:40:17;;;;;;;;;;;;;;;22.09;56.40;99137.16;7319721;19;130408;-40
2023/04/29 10:42:52;;;;;;;;;;;;;;;22.07;56.31;99133.88;7311851;19;129085;-40
2023/04/29 10:45:31;;;;;;;;;;;;;;;22.03;56.73;99140.41;7316485;19;128993;-40
2023/04/29 10:48:07;;;;;;;;;;;;;;;22.04;57.16;99139.44;7310878;19;130327;-40
2023/04/29 10:50:33;;;;;;;;;;;;;;;21.98;56.87;99136.44;7314655;19;131168;-40
2023/04/29 10:53:02;;;;;;;;;;;;;;;21.95;56.88;99136.75;7315143;19;129537;-40
2023/04/29 10:55:28;;;;;;;;;;;;;;;21.92;56.53;99147.53;7314583;19;129373;-40
2023/04/29 10:57:56;;;;;;;;;;;;;;;21.94;56.94;99144.75;7316052;19;130277;-40
2023/04/29 11:00:25;;;;;;;;;;;;;;;21.93;56.96;99151.78;7314253;19;130908;-40
2023/04/29 11:02:50;;;;;;;;;;;;;;;21.89;56.94;99152.25;7314099;19;129221;-40
2023/04/29 11:05:28;;;;;;;;;;;;;;;21.88;57.60;99146.19;7314955;19;128974;-39
2023/04/29 11:08:07;;;;;;;;;;;;;;;21.88;57.68;99146.19;7315897;19;129780;-40
2023/04/29 11:10:36;;;;;;;;;;;;;;;21.81;58.05;99129.47;7314449;19;129517;-40
2023/04/29 11:13:20;;;;;;;;;;;;;;;21.87;58.68;99147.19;7315064;19;129777;-40
2023/04/29 11:15:45;;;;;;;;;;;;;;;21.93;59.71;99151.00;7314499;19;129513;-40
2023/04/29 11:18:10;;;;;;;;;;;;;;;21.92;57.31;99165.84;7313924;19;129972;-39
2023/04/29 11:20:54;;;;;;;;;;;;;;;21.93;58.69;99164.06;7314471;19;130394;-40
2023/04/29 11:23:23;;;;;;;;;;;;;;;21.98;59.22;99167.84;7315247;19;129001;-40
2023/04/29 11:25:48;;;;;;;;;;;;;;;21.95;57.68;99173.41;7313562;19;129177;-40
2023/04/29 11:28:14;;;;;;;;;;;;;;;22.02;59.16;99178.84;7314497;19;129435;-40
2023/04/29 11:30:40;;;;;;;;;;;;;;;22.04;58.00;99176.06;7312290;19;129199;-40
2023/04/29 11:33:07;;;;;;;;;;;;;;;22.03;59.31;99175.28;7314745;19;128986;-40
2023/04/29 11:35:32;;;;;;;;;;;;;;;22.06;57.86;99179.38;7314329;19;129023;-40
2023/04/29 11:37:58;;;;;;;;;;;;;;;21.91;58.16;99166.81;7314981;19;129607;-40
2023/04/29 11:40:24;;;;;;;;;;;;;;;21.86;58.02;99179.56;7312943;19;131171;-40
2023/04/29 11:42:50;;;;;;;;;;;;;;;21.81;57.86;99181.81;7315116;19;128913;-40
2023/04/29 11:45:18;;;;;;;;;;;;;;;21.84;57.40;99186.72;7315724;19;129196;-40
2023/04/29 11:47:45;;;;;;;;;;;;;;;21.87;57.60;99180.38;7313917;19;129536;-40
2023/04/29 11:50:10;;;;;;;;;;;;;;;21.90;56.91;99180.06;7312193;19;131190;-40
2023/04/29 11:52:36;;;;;;;;;;;;;;;21.98;56.97;99191.41;7313124;19;129867;-40
2023/04/29 11:55:07;;;;;;;;;;;;;;;22.02;56.68;99188.50;7314934;19;129087;-40
2023/04/29 11:57:32;;;;;;;;;;;;;;;21.93;57.00;99175.34;7312331;19;130182;-40
2023/04/29 11:59:58;;;;;;;;;;;;;;;22.02;56.85;99196.34;7312938;19;131332;-40
2023/04/29 12:02:30;;;;;;;;;;;;;;;22.00;56.38;99204.34;7314069;19;129298;-40
2023/04/29 12:04:56;;;;;;;;;;;;;;;22.00;56.67;99206.16;7315030;19;129478;-40
2023/04/29 12:07:22;;;;;;;;;;;;;;;21.93;56.75;99201.50;7312071;19;129955;-40
2023/04/29 12:09:47;;;;;;;;;;;;;;;21.92;57.09;99207.75;7313801;19;129608;-40
2023/04/29 12:12:13;;;;;;;;;;;;;;;21.94;57.23;99208.41;7311480;19;129446;-40
2023/04/29 12:14:39;;;;;;;;;;;;;;;21.89;57.01;99218.50;7314939;19;129019;-40
2023/04/29 12:17:05;;;;;;;;;;;;;;;21.77;57.15;99200.56;7310037;19;130493;-40
2023/04/29 12:19:31;;;;;;;;;;;;;;;21.90;58.37;99222.75;7311682;19;130880;-40
2023/04/29 12:22:01;;;;;;;;;;;;;;;21.88;56.91;99214.22;7310386;19;129537;-40
2023/04/29 12:24:26;;;;;;;;;;;;;;;21.87;57.35;99227.47;7313964;19;129395;-40
2023/04/29 12:26:53;;;;;;;;;;;;;;;21.84;57.83;99233.84;7311297;19;129499;-40
2023/04/29 12:29:22;;;;;;;;;;;;;;;21.74;58.56;99227.81;7313113;19;129783;-40
2023/04/29 12:31:48;;;;;;;;;;;;;;;21.86;58.81;99241.53;7310652;19;129125;-40